Time;durP1;ratioP1;P1;durP2;ratioP2;P2;SDS_P1;SDS_P2;PMS_P1;PMS_P2;Temp;Humidity;BMP_temperature;BMP_pressure;BME280_temperature;BME280_humidity;BME280_pressure;Samples;Min_cycle;Max_cycle;Signal;HPM_P1;HPM_P2
2022/05/11 00:00:39;;;;;;;0.00;0.00;;;;;;;;;;4996528;28;98316;-75
2022/05/11 00:03:05;;;;;;;0.00;0.00;;;;;;;;;;4995845;28;99425;-75
2022/05/11 00:05:32;;;;;;;0.00;0.00;;;;;;;;;;4995999;28;99569;-74
2022/05/11 00:07:58;;;;;;;0.00;0.00;;;;;;;;;;4996198;28;98320;-74
2022/05/11 00:10:25;;;;;;;0.00;0.00;;;;;;;;;;4996568;28;99294;-74
2022/05/11 00:12:51;;;;;;;0.00;0.00;;;;;;;;;;4978224;28;100143;-74
2022/05/11 00:15:19;;;;;;;0.00;0.00;;;;;;;;;;4999675;28;98740;-75
2022/05/11 00:17:46;;;;;;;0.00;0.00;;;;;;;;;;4995880;28;99506;-74
2022/05/11 00:20:13;;;;;;;0.00;0.00;;;;;;;;;;4996551;28;97637;-74
2022/05/11 00:22:39;;;;;;;0.00;0.00;;;;;;;;;;4995943;28;98541;-75
2022/05/11 00:25:06;;;;;;;0.00;0.00;;;;;;;;;;4995751;28;99032;-75
2022/05/11 00:27:34;;;;;;;0.00;0.00;;;;;;;;;;4995625;28;99081;-75
2022/05/11 00:30:01;;;;;;;0.00;0.00;;;;;;;;;;4996148;28;100362;-74
2022/05/11 00:32:27;;;;;;;0.00;0.00;;;;;;;;;;4995401;28;99590;-74
2022/05/11 00:34:54;;;;;;;0.00;0.00;;;;;;;;;;4978184;28;98463;-75
2022/05/11 00:37:21;;;;;;;0.00;0.00;;;;;;;;;;4998665;28;98427;-75
2022/05/11 00:39:47;;;;;;;0.00;0.00;;;;;;;;;;4995864;28;98439;-75
2022/05/11 00:42:14;;;;;;;0.00;0.00;;;;;;;;;;4995911;28;99227;-75
2022/05/11 00:44:41;;;;;;;0.00;0.00;;;;;;;;;;4995887;28;99024;-74
2022/05/11 00:47:10;;;;;;;0.00;0.00;;;;;;;;;;4995732;28;98258;-75
2022/05/11 00:49:45;;;;;;;0.00;0.00;;;;;;;;;;4995171;28;99874;-75
2022/05/11 00:52:19;;;;;;;0.00;0.00;;;;;;;;;;4991876;28;99716;-75
2022/05/11 00:54:47;;;;;;;0.00;0.00;;;;;;;;;;4993249;28;98924;-75
2022/05/11 00:57:17;;;;;;;0.00;0.00;;;;;;;;;;4995759;28;99627;-75
2022/05/11 00:59:45;;;;;;;0.00;0.00;;;;;;;;;;5008811;28;99701;-74
2022/05/11 01:02:12;;;;;;;0.00;0.00;;;;;;;;;;5015667;28;99790;-74
2022/05/11 01:04:40;;;;;;;0.00;0.00;;;;;;;;;;5015088;28;99439;-75
2022/05/11 01:07:11;;;;;;;0.00;0.00;;;;;;;;;;4996852;28;99316;-75
2022/05/11 01:09:38;;;;;;;0.00;0.00;;;;;;;;;;5013430;28;100302;-75
2022/05/11 01:12:07;;;;;;;0.00;0.00;;;;;;;;;;5015037;28;100128;-75
2022/05/11 01:14:35;;;;;;;1.65;0.40;;;;;;;;;;5015283;28;98456;-75
2022/05/11 01:17:01;;;;;;;0.00;0.00;;;;;;;;;;5014845;28;99428;-75
2022/05/11 01:19:32;;;;;;;0.00;0.00;;;;;;;;;;5011948;28;99509;-75
2022/05/11 01:22:06;;;;;;;0.00;0.00;;;;;;;;;;5018592;28;98391;-75
2022/05/11 01:24:35;;;;;;;0.00;0.00;;;;;;;;;;5014577;28;99509;-75
2022/05/11 01:27:21;;;;;;;0.00;0.00;;;;;;;;;;5013889;28;98551;-75
2022/05/11 01:29:47;;;;;;;0.00;0.00;;;;;;;;;;5014911;28;99267;-74
2022/05/11 01:32:13;;;;;;;0.00;0.00;;;;;;;;;;5014941;28;99170;-75
2022/05/11 01:34:40;;;;;;;0.00;0.00;;;;;;;;;;5014956;28;97680;-75
2022/05/11 01:37:08;;;;;;;0.00;0.00;;;;;;;;;;5014852;28;98267;-75
2022/05/11 01:39:34;;;;;;;0.00;0.00;;;;;;;;;;5014587;28;100166;-75
2022/05/11 01:42:01;;;;;;;0.00;0.00;;;;;;;;;;5017780;28;99090;-74
2022/05/11 01:44:27;;;;;;;0.13;0.13;;;;;;;;;;5014401;28;99243;-74
2022/05/11 01:46:54;;;;;;;0.00;0.00;;;;;;;;;;5014786;28;100372;-75
2022/05/11 01:49:21;;;;;;;0.00;0.00;;;;;;;;;;5014677;28;98960;-74
2022/05/11 01:51:48;;;;;;;0.00;0.00;;;;;;;;;;4996924;28;99927;-75
2022/05/11 01:54:14;;;;;;;0.00;0.00;;;;;;;;;;5014797;28;98521;-75
2022/05/11 01:56:41;;;;;;;0.00;0.00;;;;;;;;;;4997033;28;98941;-76
2022/05/11 01:59:07;;;;;;;0.00;0.00;;;;;;;;;;4996561;28;99520;-75
2022/05/11 02:01:34;;;;;;;0.00;0.00;;;;;;;;;;5014620;28;98327;-75
2022/05/11 02:04:01;;;;;;;0.00;0.00;;;;;;;;;;5017565;28;98913;-74
2022/05/11 02:09:12;;;;;;;0.00;0.00;;;;;;;;;;5014345;28;100122;-73
2022/05/11 02:11:39;;;;;;;0.00;0.00;;;;;;;;;;5013813;28;99178;-73
2022/05/11 02:14:05;;;;;;;0.00;0.00;;;;;;;;;;5014312;28;98475;-74
2022/05/11 02:16:32;;;;;;;0.00;0.00;;;;;;;;;;5014561;28;99515;-74
2022/05/11 02:18:58;;;;;;;0.00;0.00;;;;;;;;;;5013043;28;99345;-74
2022/05/11 02:21:25;;;;;;;0.00;0.00;;;;;;;;;;5014536;28;98332;-74
2022/05/11 02:23:52;;;;;;;0.00;0.00;;;;;;;;;;5014108;28;99340;-74
2022/05/11 02:26:19;;;;;;;0.00;0.00;;;;;;;;;;5017371;28;99769;-73
2022/05/11 02:28:49;;;;;;;0.00;0.00;;;;;;;;;;5014257;28;99189;-75
2022/05/11 02:31:16;;;;;;;0.00;0.00;;;;;;;;;;5013307;28;100710;-73
2022/05/11 02:33:42;;;;;;;0.00;0.00;;;;;;;;;;5014171;28;98377;-75
2022/05/11 02:36:08;;;;;;;0.00;0.00;;;;;;;;;;5013936;28;99508;-73
2022/05/11 02:38:35;;;;;;;0.00;0.00;;;;;;;;;;4995640;28;99694;-73
2022/05/11 02:41:02;;;;;;;0.20;0.20;;;;;;;;;;5013717;28;98402;-73
2022/05/11 02:43:28;;;;;;;0.43;0.43;;;;;;;;;;5013767;28;99414;-73
2022/05/11 02:45:55;;;;;;;0.15;0.15;;;;;;;;;;5013450;28;99747;-73
2022/05/11 02:48:24;;;;;;;0.20;0.20;;;;;;;;;;5017579;28;97677;-75
2022/05/11 02:50:52;;;;;;;0.90;0.65;;;;;;;;;;5013099;28;99783;-76
2022/05/11 02:53:19;;;;;;;0.13;0.13;;;;;;;;;;5013999;28;98984;-74
2022/05/11 02:55:47;;;;;;;0.10;0.10;;;;;;;;;;5013358;28;99557;-74
2022/05/11 02:58:15;;;;;;;0.28;0.28;;;;;;;;;;5012929;28;100679;-73
2022/05/11 03:00:43;;;;;;;0.32;0.32;;;;;;;;;;5013546;28;98389;-75
2022/05/11 03:03:11;;;;;;;0.10;0.10;;;;;;;;;;5013336;28;98719;-75
2022/05/11 03:05:39;;;;;;;0.40;0.40;;;;;;;;;;4995116;28;100486;-74
2022/05/11 03:08:05;;;;;;;0.03;0.03;;;;;;;;;;5013605;28;98445;-75
2022/05/11 03:10:32;;;;;;;0.10;0.10;;;;;;;;;;5016294;28;99503;-74
2022/05/11 03:12:58;;;;;;;0.20;0.20;;;;;;;;;;5013839;28;97690;-74
2022/05/11 03:15:25;;;;;;;1.58;0.22;;;;;;;;;;5013484;28;98665;-74
2022/05/11 03:17:51;;;;;;;0.10;0.10;;;;;;;;;;5012677;28;99908;-74
2022/05/11 03:20:21;;;;;;;0.22;0.22;;;;;;;;;;5012980;28;99250;-74
2022/05/11 03:22:51;;;;;;;1.33;0.70;;;;;;;;;;5013176;28;100178;-75
2022/05/11 03:25:18;;;;;;;0.57;0.57;;;;;;;;;;5012789;28;99495;-75
2022/05/11 03:27:44;;;;;;;0.10;0.10;;;;;;;;;;5013240;28;98397;-75
2022/05/11 03:30:11;;;;;;;0.25;0.25;;;;;;;;;;5012873;28;99940;-75
2022/05/11 03:35:23;;;;;;;0.05;0.05;;;;;;;;;;5012979;28;99518;-74
2022/05/11 03:37:49;;;;;;;0.10;0.10;;;;;;;;;;5013293;28;99296;-74
2022/05/11 03:40:16;;;;;;;0.08;0.08;;;;;;;;;;5013000;28;98390;-74
2022/05/11 03:42:42;;;;;;;0.10;0.10;;;;;;;;;;5013155;28;99445;-75
2022/05/11 03:45:12;;;;;;;0.20;0.20;;;;;;;;;;5011784;28;99646;-75
2022/05/11 03:47:38;;;;;;;0.15;0.15;;;;;;;;;;5013100;28;98432;-74
2022/05/11 03:50:05;;;;;;;0.03;0.03;;;;;;;;;;5012750;28;98751;-74
2022/05/11 03:52:32;;;;;;;0.28;0.28;;;;;;;;;;5015631;28;99547;-74
2022/05/11 03:54:58;;;;;;;0.10;0.10;;;;;;;;;;5011860;28;99412;-74
2022/05/11 03:57:24;;;;;;;0.00;0.00;;;;;;;;;;4994875;28;99820;-74
2022/05/11 03:59:51;;;;;;;0.30;0.30;;;;;;;;;;5012362;28;98510;-75
2022/05/11 04:02:17;;;;;;;0.10;0.10;;;;;;;;;;5013026;28;99752;-73
2022/05/11 04:04:44;;;;;;;0.00;0.00;;;;;;;;;;4993980;28;101974;-73
2022/05/11 04:07:10;;;;;;;0.00;0.00;;;;;;;;;;5012401;28;98508;-73
2022/05/11 04:09:36;;;;;;;0.00;0.00;;;;;;;;;;5012036;28;99948;-73
2022/05/11 04:12:03;;;;;;;0.00;0.00;;;;;;;;;;5011486;28;101059;-74
2022/05/11 04:14:30;;;;;;;0.00;0.00;;;;;;;;;;5015768;28;98331;-74
2022/05/11 04:16:59;;;;;;;0.00;0.00;;;;;;;;;;4994499;28;101569;-73
2022/05/11 04:19:28;;;;;;;0.25;0.25;;;;;;;;;;5012468;28;98492;-74
2022/05/11 04:21:55;;;;;;;0.00;0.00;;;;;;;;;;5012517;28;99584;-74
2022/05/11 04:24:21;;;;;;;0.00;0.00;;;;;;;;;;5011906;28;99799;-73
2022/05/11 04:26:49;;;;;;;0.00;0.00;;;;;;;;;;5012436;28;97683;-74
2022/05/11 04:29:16;;;;;;;0.00;0.00;;;;;;;;;;5012427;28;98751;-75
2022/05/11 04:31:42;;;;;;;0.00;0.00;;;;;;;;;;5012014;28;99746;-74
2022/05/11 04:34:11;;;;;;;0.00;0.00;;;;;;;;;;5011791;28;99218;-74
2022/05/11 04:36:39;;;;;;;0.00;0.00;;;;;;;;;;5015131;28;99546;-74
2022/05/11 04:39:06;;;;;;;0.00;0.00;;;;;;;;;;5012397;28;98342;-74
2022/05/11 04:41:36;;;;;;;0.00;0.00;;;;;;;;;;5013589;28;100721;-73
2022/05/11 04:44:02;;;;;;;0.00;0.00;;;;;;;;;;5015153;28;100802;-73
2022/05/11 04:46:33;;;;;;;0.00;0.00;;;;;;;;;;5015377;28;98434;-73
2022/05/11 04:52:07;;;;;;;0.00;0.00;;;;;;;;;;4953752;28;100070;-73
2022/05/11 04:54:34;;;;;;;0.00;0.00;;;;;;;;;;5005211;28;98420;-74
2022/05/11 04:57:00;;;;;;;0.00;0.00;;;;;;;;;;5015773;28;99566;-73
2022/05/11 04:59:27;;;;;;;0.00;0.00;;;;;;;;;;5017812;28;100637;-74
2022/05/11 05:01:53;;;;;;;0.00;0.00;;;;;;;;;;5015936;28;99515;-74
2022/05/11 05:04:20;;;;;;;0.00;0.00;;;;;;;;;;5013791;28;103064;-74
2022/05/11 05:06:46;;;;;;;0.00;0.00;;;;;;;;;;5015484;28;98396;-74
2022/05/11 05:09:14;;;;;;;0.00;0.00;;;;;;;;;;5015332;28;99893;-74
2022/05/11 05:11:41;;;;;;;0.00;0.00;;;;;;;;;;5014723;28;99841;-74
2022/05/11 05:14:11;;;;;;;0.20;0.20;;;;;;;;;;5015273;28;98221;-78
2022/05/11 05:16:37;;;;;;;0.00;0.00;;;;;;;;;;5015849;28;98889;-75
2022/05/11 05:19:05;;;;;;;0.00;0.00;;;;;;;;;;5014343;28;99264;-75
2022/05/11 05:21:32;;;;;;;0.00;0.00;;;;;;;;;;5018539;28;99309;-74
2022/05/11 05:23:58;;;;;;;0.00;0.00;;;;;;;;;;5014297;28;100230;-74
2022/05/11 05:26:25;;;;;;;0.00;0.00;;;;;;;;;;5015114;28;98497;-75
2022/05/11 05:31:36;;;;;;;0.00;0.00;;;;;;;;;;5014178;28;99684;-74
2022/05/11 05:34:02;;;;;;;0.03;0.03;;;;;;;;;;5015014;28;98362;-75
2022/05/11 05:36:31;;;;;;;0.00;0.00;;;;;;;;;;5015053;28;99386;-75
2022/05/11 05:39:00;;;;;;;0.00;0.00;;;;;;;;;;5014283;28;100482;-74
2022/05/11 05:41:27;;;;;;;0.00;0.00;;;;;;;;;;5015735;28;97476;-77
2022/05/11 05:43:54;;;;;;;0.00;0.00;;;;;;;;;;5017701;28;99064;-75
2022/05/11 05:46:20;;;;;;;0.00;0.00;;;;;;;;;;5014556;28;98483;-74
2022/05/11 05:48:47;;;;;;;0.00;0.00;;;;;;;;;;5014354;28;99885;-75
2022/05/11 05:51:15;;;;;;;0.10;0.10;;;;;;;;;;4996368;28;101089;-75
2022/05/11 05:53:41;;;;;;;0.00;0.00;;;;;;;;;;5014620;28;98588;-76
2022/05/11 05:56:09;;;;;;;0.00;0.00;;;;;;;;;;5013427;28;100171;-73
2022/05/11 05:58:35;;;;;;;0.00;0.00;;;;;;;;;;5013612;28;100488;-74
2022/05/11 06:01:02;;;;;;;0.00;0.00;;;;;;;;;;5014707;28;98319;-75
2022/05/11 06:03:30;;;;;;;0.00;0.00;;;;;;;;;;5016834;28;101357;-76
2022/05/11 06:06:03;;;;;;;0.00;0.00;;;;;;;;;;4997055;28;97730;-76
2022/05/11 06:08:29;;;;;;;0.17;0.17;;;;;;;;;;5014686;28;98703;-75
2022/05/11 06:10:57;;;;;;;0.00;0.00;;;;;;;;;;5014153;28;100298;-76
2022/05/11 06:13:23;;;;;;;0.03;0.03;;;;;;;;;;5013170;28;100080;-75
2022/05/11 06:15:50;;;;;;;0.00;0.00;;;;;;;;;;4996387;28;101240;-75
2022/05/11 06:18:18;;;;;;;0.00;0.00;;;;;;;;;;5013928;28;99086;-75
2022/05/11 06:20:44;;;;;;;0.00;0.00;;;;;;;;;;5013705;28;98411;-73
2022/05/11 06:23:10;;;;;;;0.00;0.00;;;;;;;;;;5014362;28;99469;-75
2022/05/11 06:25:37;;;;;;;0.00;0.00;;;;;;;;;;5016466;28;99704;-79
2022/05/11 06:28:04;;;;;;;0.00;0.00;;;;;;;;;;4996963;28;98797;-75
2022/05/11 06:30:31;;;;;;;0.00;0.00;;;;;;;;;;5014264;28;98912;-81
2022/05/11 06:32:57;;;;;;;0.00;0.00;;;;;;;;;;5014359;28;98408;-77
2022/05/11 06:35:24;;;;;;;0.00;0.00;;;;;;;;;;5014699;28;98680;-79
2022/05/11 06:37:59;;;;;;;0.00;0.00;;;;;;;;;;4996288;28;99774;-78
2022/05/11 06:41:05;;;;;;;0.38;0.38;;;;;;;;;;4933911;28;98352;-77
2022/05/11 06:44:03;;;;;;;0.00;0.00;;;;;;;;;;4900176;28;101254;-79
2022/05/11 06:46:41;;;;;;;0.00;0.00;;;;;;;;;;4931863;28;99234;-78
2022/05/11 06:49:08;;;;;;;0.00;0.00;;;;;;;;;;4969594;28;98569;-78
2022/05/11 06:51:35;;;;;;;0.00;0.00;;;;;;;;;;5014142;28;99042;-77
2022/05/11 06:59:34;;;;;;;0.10;0.10;;;;;;;;;;5013239;28;99495;-79
2022/05/11 07:02:05;;;;;;;0.00;0.00;;;;;;;;;;5013656;28;98362;-78
2022/05/11 07:04:33;;;;;;;4.37;0.63;;;;;;;;;;5012057;28;100898;-77
2022/05/11 07:07:03;;;;;;;0.00;0.00;;;;;;;;;;5013148;28;98783;-77
2022/05/11 07:09:34;;;;;;;0.00;0.00;;;;;;;;;;5013117;28;98488;-78
2022/05/11 07:12:20;;;;;;;0.00;0.00;;;;;;;;;;5018088;28;99108;-76
2022/05/11 07:14:54;;;;;;;0.00;0.00;;;;;;;;;;5013353;28;98456;-80
2022/05/11 07:17:24;;;;;;;0.00;0.00;;;;;;;;;;5013584;28;98737;-79
2022/05/11 07:19:50;;;;;;;0.00;0.00;;;;;;;;;;5012938;28;99501;-74
2022/05/11 07:22:16;;;;;;;0.10;0.10;;;;;;;;;;5013639;28;97792;-75
2022/05/11 07:24:43;;;;;;;0.00;0.00;;;;;;;;;;5013200;28;98637;-77
2022/05/11 07:27:16;;;;;;;0.00;0.00;;;;;;;;;;5012982;28;99718;-78
2022/05/11 07:29:44;;;;;;;0.00;0.00;;;;;;;;;;4995354;28;99056;-77
2022/05/11 07:32:14;;;;;;;0.00;0.00;;;;;;;;;;5013276;28;99644;-75
2022/05/11 07:34:40;;;;;;;0.08;0.08;;;;;;;;;;5015284;28;100045;-76
2022/05/11 07:37:07;;;;;;;0.00;0.00;;;;;;;;;;5012817;28;100440;-76
2022/05/11 07:39:34;;;;;;;3.15;1.05;;;;;;;;;;5012164;28;101739;-76
2022/05/11 07:42:00;;;;;;;0.10;0.10;;;;;;;;;;5012820;28;98501;-76
2022/05/11 07:44:27;;;;;;;0.10;0.10;;;;;;;;;;5013177;28;98913;-76
2022/05/11 07:46:53;;;;;;;0.00;0.00;;;;;;;;;;5013022;28;99343;-76
2022/05/11 07:49:20;;;;;;;0.00;0.00;;;;;;;;;;5012815;28;98321;-77
2022/05/11 07:51:46;;;;;;;0.10;0.10;;;;;;;;;;5012741;28;100401;-78
2022/05/11 07:54:13;;;;;;;0.10;0.10;;;;;;;;;;5011774;28;100913;-77
2022/05/11 08:02:09;;;;;;;0.00;0.00;;;;;;;;;;4995402;28;98611;-77
2022/05/11 08:04:36;;;;;;;0.10;0.10;;;;;;;;;;5011762;28;98725;-80
2022/05/11 08:07:03;;;;;;;0.00;0.00;;;;;;;;;;5012169;28;101233;-78
2022/05/11 08:09:29;;;;;;;0.10;0.10;;;;;;;;;;5012550;28;99291;-78
2022/05/11 08:11:56;;;;;;;0.00;0.00;;;;;;;;;;5013156;28;99617;-79
2022/05/11 08:14:23;;;;;;;0.00;0.00;;;;;;;;;;5010864;28;100409;-79
2022/05/11 08:16:52;;;;;;;0.00;0.00;;;;;;;;;;5018030;28;98377;-79
2022/05/11 08:19:41;;;;;;;0.00;0.00;;;;;;;;;;5015213;28;100246;-81
2022/05/11 08:22:14;;;;;;;0.47;0.47;;;;;;;;;;5016176;28;98423;-81
2022/05/11 08:24:42;;;;;;;0.00;0.00;;;;;;;;;;5015986;28;99098;-81
2022/05/11 08:27:10;;;;;;;0.00;0.00;;;;;;;;;;4997807;28;102219;-81
2022/05/11 08:35:29;;;;;;;0.10;0.10;;;;;;;;;;5015696;28;98984;-76
2022/05/11 08:37:55;;;;;;;0.40;0.40;;;;;;;;;;5016414;28;97564;-76
2022/05/11 08:40:42;;;;;;;0.10;0.10;;;;;;;;;;4984764;28;98548;-77
2022/05/11 08:43:10;;;;;;;0.00;0.00;;;;;;;;;;5007926;28;98703;-76
2022/05/11 08:45:46;;;;;;;0.08;0.08;;;;;;;;;;5014579;28;100321;-76
2022/05/11 08:48:21;;;;;;;0.10;0.10;;;;;;;;;;5015217;28;99617;-76
2022/05/11 08:50:48;;;;;;;0.00;0.00;;;;;;;;;;4998000;28;98371;-76
2022/05/11 08:53:33;;;;;;;0.00;0.00;;;;;;;;;;5015861;28;99602;-74
2022/05/11 08:56:04;;;;;;;0.00;0.00;;;;;;;;;;5014865;28;99532;-75
2022/05/11 08:58:41;;;;;;;0.00;0.00;;;;;;;;;;5015413;28;98366;-77
2022/05/11 09:01:11;;;;;;;0.00;0.00;;;;;;;;;;5015412;28;99419;-75
2022/05/11 09:03:43;;;;;;;0.00;0.00;;;;;;;;;;5018516;28;98957;-76
2022/05/11 09:06:23;;;;;;;0.00;0.00;;;;;;;;;;5015489;28;99266;-78
2022/05/11 09:08:51;;;;;;;0.00;0.00;;;;;;;;;;5014921;28;99597;-74
2022/05/11 09:11:25;;;;;;;0.00;0.00;;;;;;;;;;5014847;28;99051;-77
2022/05/11 09:14:02;;;;;;;0.10;0.10;;;;;;;;;;5015343;28;100050;-81
2022/05/11 09:16:38;;;;;;;0.10;0.10;;;;;;;;;;5013531;28;100923;-79
2022/05/11 09:19:12;;;;;;;0.00;0.00;;;;;;;;;;5015957;28;98419;-78
2022/05/11 09:21:47;;;;;;;0.00;0.00;;;;;;;;;;4998205;28;99713;-78
2022/05/11 09:24:16;;;;;;;0.00;0.00;;;;;;;;;;5014945;28;99684;-78
2022/05/11 09:26:47;;;;;;;0.00;0.00;;;;;;;;;;5018048;28;98292;-79
2022/05/11 09:29:16;;;;;;;0.00;0.00;;;;;;;;;;5012082;28;100222;-78
2022/05/11 09:31:44;;;;;;;0.00;0.00;;;;;;;;;;5014656;28;98438;-77
2022/05/11 09:34:12;;;;;;;0.10;0.10;;;;;;;;;;5014837;28;100197;-76
2022/05/11 09:36:56;;;;;;;0.10;0.10;;;;;;;;;;5013961;28;99777;-76
2022/05/11 09:39:23;;;;;;;0.00;0.00;;;;;;;;;;5015053;28;98361;-76
2022/05/11 09:41:51;;;;;;;0.03;0.03;;;;;;;;;;5014470;28;99550;-78
2022/05/11 09:44:26;;;;;;;0.10;0.10;;;;;;;;;;5014618;28;99591;-78
2022/05/11 09:47:02;;;;;;;0.00;0.00;;;;;;;;;;5014521;28;98352;-77
2022/05/11 09:49:28;;;;;;;0.00;0.00;;;;;;;;;;5017800;28;98734;-78
2022/05/11 09:51:58;;;;;;;0.10;0.10;;;;;;;;;;5012640;28;98350;-77
2022/05/11 09:54:46;;;;;;;0.08;0.08;;;;;;;;;;5014361;28;99318;-80
2022/05/11 09:57:30;;;;;;;0.00;0.00;;;;;;;;;;4983279;28;128051;-78
2022/05/11 10:00:18;;;;;;;0.00;0.00;;;;;;;;;;5014594;28;98368;-80
2022/05/11 10:02:51;;;;;;;0.10;0.10;;;;;;;;;;4996522;28;99242;-82
2022/05/11 10:05:20;;;;;;;0.10;0.10;;;;;;;;;;5014136;28;100066;-79
2022/05/11 10:07:51;;;;;;;0.10;0.10;;;;;;;;;;5014431;28;98455;-81
2022/05/11 10:10:24;;;;;;;0.10;0.10;;;;;;;;;;5017244;28;99367;-78
2022/05/11 10:12:51;;;;;;;0.10;0.10;;;;;;;;;;5014495;28;98545;-79
2022/05/11 10:23:59;;;;;;;0.00;0.00;;;;;;;;;;4995507;28;101791;-80
2022/05/11 10:26:51;;;;;;;0.10;0.10;;;;;;;;;;4932278;28;101555;-79
2022/05/11 10:29:46;;;;;;;0.17;0.17;;;;;;;;;;4932606;28;99271;-79
2022/05/11 10:32:20;;;;;;;0.20;0.20;;;;;;;;;;4992831;28;100028;-76
2022/05/11 10:35:07;;;;;;;0.10;0.10;;;;;;;;;;5016807;28;99728;-76
2022/05/11 10:37:37;;;;;;;0.10;0.10;;;;;;;;;;5013775;28;99378;-77
2022/05/11 10:40:10;;;;;;;0.10;0.10;;;;;;;;;;5012258;28;99973;-78
2022/05/11 10:42:43;;;;;;;0.13;0.13;;;;;;;;;;5013789;28;98442;-78
2022/05/11 10:45:17;;;;;;;0.10;0.10;;;;;;;;;;5012737;28;99437;-77
2022/05/11 10:47:56;;;;;;;0.10;0.10;;;;;;;;;;5013997;28;99254;-77
2022/05/11 10:50:35;;;;;;;0.10;0.10;;;;;;;;;;5013757;28;98406;-76
2022/05/11 10:53:23;;;;;;;0.00;0.00;;;;;;;;;;5013675;28;99497;-78
2022/05/11 10:56:00;;;;;;;0.00;0.00;;;;;;;;;;4994466;28;101362;-75
2022/05/11 10:58:36;;;;;;;0.10;0.10;;;;;;;;;;5017255;28;98546;-75
2022/05/11 11:01:12;;;;;;;0.10;0.10;;;;;;;;;;4995767;28;99305;-76
2022/05/11 11:03:48;;;;;;;0.08;0.08;;;;;;;;;;5013136;28;98372;-75
2022/05/11 11:09:27;;;;;;;0.10;0.10;;;;;;;;;;5012159;28;99775;-76
2022/05/11 11:11:56;;;;;;;0.10;0.10;;;;;;;;;;4973430;28;98376;-76
2022/05/11 11:14:25;;;;;;;0.10;0.10;;;;;;;;;;4974223;28;99371;-76
2022/05/11 11:17:08;;;;;;;0.10;0.10;;;;;;;;;;4972908;28;99499;-75
2022/05/11 11:19:35;;;;;;;0.10;0.10;;;;;;;;;;4973520;28;98462;-75
2022/05/11 11:22:05;;;;;;;0.10;0.10;;;;;;;;;;4975528;28;99598;-76
2022/05/11 11:24:32;;;;;;;0.00;0.00;;;;;;;;;;4973525;28;98386;-77
2022/05/11 11:27:03;;;;;;;0.10;0.10;;;;;;;;;;4973553;28;99486;-76
2022/05/11 11:29:33;;;;;;;0.10;0.10;;;;;;;;;;4973009;28;99682;-75
2022/05/11 11:32:01;;;;;;;0.20;0.20;;;;;;;;;;4973336;28;98486;-76
2022/05/11 11:34:31;;;;;;;0.28;0.28;;;;;;;;;;4972931;28;99427;-76
2022/05/11 11:36:58;;;;;;;0.00;0.00;;;;;;;;;;4972850;28;99796;-75
2022/05/11 11:39:43;;;;;;;0.10;0.10;;;;;;;;;;4973838;28;97672;-75
2022/05/11 11:42:10;;;;;;;0.10;0.10;;;;;;;;;;4973338;28;99212;-75
2022/05/11 11:44:40;;;;;;;0.10;0.10;;;;;;;;;;4975833;28;100583;-76
2022/05/11 11:47:28;;;;;;;0.10;0.10;;;;;;;;;;4972539;28;99568;-74
2022/05/11 11:49:55;;;;;;;0.00;0.00;;;;;;;;;;4972269;28;100520;-75
2022/05/11 11:52:43;;;;;;;0.10;0.10;;;;;;;;;;4973171;28;98403;-76
2022/05/11 11:55:18;;;;;;;0.10;0.10;;;;;;;;;;4973270;28;99919;-77
2022/05/11 11:57:45;;;;;;;0.10;0.10;;;;;;;;;;4972683;28;99648;-76
2022/05/11 12:00:21;;;;;;;0.35;0.35;;;;;;;;;;4972693;28;98391;-76
2022/05/11 12:02:47;;;;;;;0.00;0.00;;;;;;;;;;4973135;28;99932;-76
2022/05/11 12:05:13;;;;;;;0.10;0.10;;;;;;;;;;4972781;28;99241;-76
2022/05/11 12:16:46;;;;;;;0.10;0.10;;;;;;;;;;4972310;28;100173;-80
2022/05/11 12:19:14;;;;;;;0.00;0.00;;;;;;;;;;4938317;28;102335;-78
2022/05/11 12:21:51;;;;;;;0.00;0.00;;;;;;;;;;4972580;28;98406;-79
2022/05/11 12:24:27;;;;;;;0.38;0.38;;;;;;;;;;4954882;28;101784;-80
2022/05/11 12:27:04;;;;;;;0.10;0.10;;;;;;;;;;4987398;28;100150;-80
2022/05/11 12:29:59;;;;;;;0.10;0.10;;;;;;;;;;4975329;28;98394;-80
2022/05/11 12:32:31;;;;;;;0.10;0.10;;;;;;;;;;4972799;28;99219;-79
2022/05/11 12:35:06;;;;;;;0.10;0.10;;;;;;;;;;4972504;28;98364;-77
2022/05/11 12:37:37;;;;;;;0.10;0.10;;;;;;;;;;4972597;28;98940;-79
2022/05/11 12:40:06;;;;;;;0.10;0.10;;;;;;;;;;4971911;28;99866;-78
2022/05/11 12:42:38;;;;;;;0.10;0.10;;;;;;;;;;4955468;28;98673;-78
2022/05/11 12:45:09;;;;;;;0.10;0.10;;;;;;;;;;4989848;28;98927;-78
2022/05/11 12:47:39;;;;;;;0.10;0.10;;;;;;;;;;4994311;28;100049;-77
2022/05/11 12:50:06;;;;;;;0.00;0.00;;;;;;;;;;4999163;28;98606;-76
2022/05/11 12:52:34;;;;;;;0.00;0.00;;;;;;;;;;4980741;28;99521;-78
2022/05/11 12:55:02;;;;;;;0.10;0.10;;;;;;;;;;5000896;28;98484;-79
2022/05/11 12:57:55;;;;;;;0.10;0.10;;;;;;;;;;4984103;28;100428;-78
2022/05/11 13:00:26;;;;;;;0.00;0.00;;;;;;;;;;4996282;28;99677;-80
2022/05/11 13:02:52;;;;;;;0.10;0.10;;;;;;;;;;5002974;28;98643;-81
2022/05/11 13:05:19;;;;;;;0.10;0.10;;;;;;;;;;5001937;28;100870;-77
2022/05/11 13:08:04;;;;;;;0.10;0.10;;;;;;;;;;5002957;28;99686;-76
2022/05/11 13:10:30;;;;;;;0.00;0.00;;;;;;;;;;4999885;28;98422;-77
2022/05/11 13:12:58;;;;;;;0.00;0.00;;;;;;;;;;5005516;28;98836;-78
2022/05/11 13:15:33;;;;;;;0.10;0.10;;;;;;;;;;4988246;28;99651;-78
2022/05/11 13:17:59;;;;;;;0.08;0.08;;;;;;;;;;5003933;28;99232;-77
2022/05/11 13:20:26;;;;;;;0.03;0.03;;;;;;;;;;5005866;28;100673;-77
2022/05/11 13:22:54;;;;;;;0.20;0.20;;;;;;;;;;5006286;28;98702;-77
2022/05/11 13:25:59;;;;;;;0.00;0.00;;;;;;;;;;4998555;28;98547;-76
2022/05/11 13:28:30;;;;;;;0.10;0.10;;;;;;;;;;4969003;28;99668;-77
2022/05/11 13:31:00;;;;;;;0.10;0.10;;;;;;;;;;4974751;28;99330;-77
2022/05/11 13:33:33;;;;;;;0.10;0.10;;;;;;;;;;4970785;28;103072;-77
2022/05/11 13:36:10;;;;;;;0.10;0.10;;;;;;;;;;5005035;28;99125;-76
2022/05/11 13:38:38;;;;;;;0.00;0.00;;;;;;;;;;5007415;28;98332;-77
2022/05/11 13:41:13;;;;;;;0.10;0.10;;;;;;;;;;5004304;28;99291;-77
2022/05/11 13:43:51;;;;;;;0.00;0.00;;;;;;;;;;5002616;28;98476;-76
2022/05/11 13:46:31;;;;;;;1.10;0.10;;;;;;;;;;5002216;28;99737;-74
2022/05/11 13:49:18;;;;;;;0.10;0.10;;;;;;;;;;4998997;28;98724;-75
2022/05/11 13:51:44;;;;;;;0.10;0.10;;;;;;;;;;5002801;28;98385;-75
2022/05/11 13:54:37;;;;;;;0.10;0.10;;;;;;;;;;5004482;28;99448;-78
2022/05/11 13:57:03;;;;;;;0.10;0.10;;;;;;;;;;4972104;28;100545;-79
2022/05/11 13:59:31;;;;;;;0.03;0.03;;;;;;;;;;5005655;28;98344;-76
2022/05/11 14:01:59;;;;;;;0.10;0.10;;;;;;;;;;5005510;28;99431;-77
2022/05/11 14:04:31;;;;;;;0.10;0.10;;;;;;;;;;5004899;28;98474;-78
2022/05/11 14:07:23;;;;;;;0.10;0.10;;;;;;;;;;5001308;28;99720;-75
2022/05/11 14:09:51;;;;;;;0.15;0.15;;;;;;;;;;5002087;28;99643;-75
2022/05/11 14:12:17;;;;;;;0.00;0.00;;;;;;;;;;4986676;28;98419;-76
2022/05/11 14:14:45;;;;;;;0.10;0.10;;;;;;;;;;5000818;28;103703;-76
2022/05/11 14:17:16;;;;;;;0.10;0.10;;;;;;;;;;4985346;28;99645;-74
2022/05/11 14:19:42;;;;;;;0.10;0.10;;;;;;;;;;5005068;28;99106;-75
2022/05/11 14:22:09;;;;;;;0.10;0.10;;;;;;;;;;5001684;28;99765;-77
2022/05/11 14:24:35;;;;;;;0.28;0.28;;;;;;;;;;5008393;28;100539;-76
2022/05/11 14:27:02;;;;;;;0.20;0.20;;;;;;;;;;5002622;28;98930;-76
2022/05/11 14:29:28;;;;;;;0.10;0.10;;;;;;;;;;5003969;28;100269;-75
2022/05/11 14:31:56;;;;;;;0.10;0.10;;;;;;;;;;5003007;28;99075;-77
2022/05/11 14:34:25;;;;;;;0.47;0.47;;;;;;;;;;5003192;28;99210;-77
2022/05/11 14:36:53;;;;;;;0.10;0.10;;;;;;;;;;5000963;28;99249;-79
2022/05/11 14:39:21;;;;;;;0.00;0.00;;;;;;;;;;5004778;28;97553;-78
2022/05/11 14:41:47;;;;;;;0.10;0.10;;;;;;;;;;5001969;28;98588;-76
2022/05/11 14:44:14;;;;;;;0.10;0.10;;;;;;;;;;5007798;28;99671;-79
2022/05/11 14:46:46;;;;;;;0.10;0.10;;;;;;;;;;4997085;28;99422;-80
2022/05/11 14:49:23;;;;;;;0.00;0.00;;;;;;;;;;4999083;28;99031;-79
2022/05/11 14:51:53;;;;;;;0.25;0.17;;;;;;;;;;5000899;28;98383;-78
2022/05/11 14:54:19;;;;;;;0.10;0.10;;;;;;;;;;5005088;28;99843;-78
2022/05/11 15:03:52;;;;;;;0.10;0.10;;;;;;;;;;4983122;28;101582;-77
2022/05/11 15:07:10;;;;;;;;;;;;;;;;;;;;;
2022/05/11 15:09:43;;;;;;;0.10;0.10;;;;;;;;;;5006634;28;98501;-77
2022/05/11 15:14:59;;;;;;;0.10;0.10;;;;;;;;;;4975522;28;99173;-79
2022/05/11 15:17:33;;;;;;;0.10;0.10;;;;;;;;;;4997956;28;99869;-80
2022/05/11 15:20:25;;;;;;;0.20;0.20;;;;;;;;;;5013968;28;101784;-81
2022/05/11 15:22:52;;;;;;;0.30;0.30;;;;;;;;;;5000708;28;98513;-80
2022/05/11 15:25:26;;;;;;;0.00;0.00;;;;;;;;;;4996306;28;98624;-77
2022/05/11 15:27:53;;;;;;;0.00;0.00;;;;;;;;;;5000623;28;100046;-80
2022/05/11 15:30:22;;;;;;;0.10;0.10;;;;;;;;;;4983012;28;98402;-79
2022/05/11 15:32:52;;;;;;;0.10;0.10;;;;;;;;;;5002466;28;98874;-78
2022/05/11 15:35:19;;;;;;;0.00;0.00;;;;;;;;;;4996208;28;99342;-78
2022/05/11 15:37:46;;;;;;;0.00;0.00;;;;;;;;;;5003659;28;98891;-77
2022/05/11 15:40:13;;;;;;;0.10;0.10;;;;;;;;;;4999756;28;100099;-77
2022/05/11 15:42:42;;;;;;;0.00;0.00;;;;;;;;;;4999320;28;99331;-78
2022/05/11 15:45:10;;;;;;;0.10;0.10;;;;;;;;;;5001141;28;99307;-76
2022/05/11 15:47:36;;;;;;;0.10;0.10;;;;;;;;;;5000389;28;99381;-79
2022/05/11 15:50:04;;;;;;;0.00;0.00;;;;;;;;;;4992604;28;98367;-79
2022/05/11 15:52:34;;;;;;;0.10;0.10;;;;;;;;;;5003852;28;98631;-73
2022/05/11 15:55:05;;;;;;;0.10;0.10;;;;;;;;;;5003938;28;99220;-80
2022/05/11 15:57:34;;;;;;;0.10;0.10;;;;;;;;;;5001148;28;99301;-77